createdAt,value
2018-11-21T00:02:09.560Z,2.60
2018-11-21T00:04:35.868Z,2.60
2018-11-21T00:07:04.973Z,2.50
2018-11-21T00:09:34.651Z,2.50
2018-11-21T00:12:06.251Z,2.60
2018-11-21T00:14:35.374Z,2.80
2018-11-21T00:17:01.695Z,2.90
2018-11-21T00:19:30.555Z,2.90
2018-11-21T00:22:00.338Z,3.10
2018-11-21T00:24:29.540Z,3.10
2018-11-21T00:26:58.873Z,2.80
2018-11-21T00:29:29.561Z,2.80
2018-11-21T00:31:59.222Z,2.70
2018-11-21T00:34:28.786Z,2.60
2018-11-21T00:36:58.800Z,2.80
2018-11-21T00:39:27.864Z,2.80
2018-11-21T00:41:57.561Z,2.70
2018-11-21T00:44:26.564Z,2.90
2018-11-21T00:46:56.762Z,3.00
2018-11-21T00:49:25.721Z,2.90
2018-11-21T00:51:54.711Z,3.00
2018-11-21T00:54:24.202Z,2.90
2018-11-21T00:56:53.422Z,2.70
2018-11-21T00:59:24.020Z,2.70
2018-11-21T01:01:52.981Z,2.80
2018-11-21T01:04:23.940Z,2.90
2018-11-21T01:06:50.931Z,2.80
2018-11-21T01:09:22.863Z,2.70
2018-11-21T01:11:51.374Z,2.80
2018-11-21T01:14:24.373Z,2.80
2018-11-21T01:16:53.153Z,2.90
2018-11-21T01:19:22.679Z,3.00
2018-11-21T01:21:51.838Z,2.90
2018-11-21T01:24:23.415Z,3.00
2018-11-21T01:26:49.786Z,3.10
2018-11-21T01:29:18.946Z,3.00
2018-11-21T01:31:48.133Z,2.90
2018-11-21T01:34:16.660Z,2.80
2018-11-21T01:36:46.132Z,2.80
2018-11-21T01:39:15.138Z,2.80
2018-11-21T01:41:44.429Z,2.90
2018-11-21T01:44:13.679Z,2.90
2018-11-21T01:46:43.359Z,2.90
2018-11-21T01:49:12.450Z,3.00
2018-11-21T01:51:41.341Z,3.20
2018-11-21T01:54:10.194Z,3.10
2018-11-21T01:56:39.240Z,3.10
2018-11-21T01:59:08.520Z,3.00
2018-11-21T02:01:37.600Z,3.00
2018-11-21T02:04:07.010Z,3.10
2018-11-21T02:06:35.935Z,3.10
2018-11-21T02:09:07.826Z,3.00
2018-11-21T02:11:37.512Z,2.90
2018-11-21T02:14:06.389Z,2.90
2018-11-21T02:16:35.293Z,2.90
2018-11-21T02:19:04.220Z,2.80
2018-11-21T02:21:33.423Z,2.80
2018-11-21T02:24:02.176Z,2.90
2018-11-21T02:26:31.509Z,2.70
2018-11-21T02:29:01.058Z,2.70
2018-11-21T02:31:29.763Z,2.90
2018-11-21T02:33:58.661Z,2.80
2018-11-21T02:36:27.372Z,2.80
2018-11-21T02:38:57.723Z,2.90
2018-11-21T02:41:26.523Z,3.00
2018-11-21T02:43:55.266Z,3.00
2018-11-21T02:46:24.032Z,3.00
2018-11-21T02:48:52.933Z,2.90
2018-11-21T02:51:21.703Z,2.90
2018-11-21T02:53:51.119Z,2.80
2018-11-21T02:56:19.802Z,2.90
2018-11-21T02:58:48.975Z,2.90
2018-11-21T03:01:18.604Z,2.90
2018-11-21T03:03:48.010Z,2.80
2018-11-21T03:06:16.817Z,2.80
2018-11-21T03:08:45.611Z,2.70
2018-11-21T03:11:14.987Z,2.80
2018-11-21T03:13:44.249Z,2.80
2018-11-21T03:16:12.887Z,3.00
2018-11-21T03:18:42.059Z,2.90
2018-11-21T03:21:11.445Z,2.90
2018-11-21T03:23:41.028Z,2.90
2018-11-21T03:26:09.856Z,2.90
2018-11-21T03:28:39.613Z,2.90
2018-11-21T03:31:08.372Z,2.90
2018-11-21T03:33:37.947Z,2.80
2018-11-21T03:36:07.057Z,3.00
2018-11-21T03:38:39.235Z,3.00
2018-11-21T03:41:05.562Z,3.10
2018-11-21T03:43:34.364Z,3.10
2018-11-21T03:46:03.128Z,3.00
2018-11-21T03:48:32.585Z,3.00
2018-11-21T03:51:02.439Z,3.00
2018-11-21T03:53:31.297Z,3.00
2018-11-21T03:56:00.151Z,3.10
2018-11-21T03:58:29.765Z,3.10
2018-11-21T04:00:58.975Z,2.90
2018-11-21T04:03:27.706Z,2.80
2018-11-21T04:05:56.561Z,2.90
2018-11-21T04:08:25.815Z,2.90
2018-11-21T04:10:54.720Z,3.10
2018-11-21T04:13:23.493Z,3.10
2018-11-21T04:15:52.373Z,3.20
2018-11-21T04:18:21.061Z,3.10
2018-11-21T04:20:50.409Z,3.10
2018-11-21T04:23:19.364Z,3.10
2018-11-21T04:25:48.371Z,3.30
2018-11-21T04:28:16.908Z,3.20
2018-11-21T04:30:46.142Z,3.20
2018-11-21T04:33:14.861Z,3.20
2018-11-21T04:35:43.970Z,3.30
2018-11-21T04:38:17.129Z,3.00
2018-11-21T04:40:47.156Z,2.90
2018-11-21T04:43:16.699Z,3.00
2018-11-21T04:45:45.541Z,3.20
2018-11-21T04:48:14.424Z,3.00
2018-11-21T04:50:43.316Z,3.00
2018-11-21T04:53:12.070Z,3.20
2018-11-21T04:55:41.144Z,3.10
2018-11-21T04:58:10.359Z,3.00
2018-11-21T05:00:39.317Z,3.20
2018-11-21T05:03:08.440Z,3.20
2018-11-21T05:05:38.484Z,3.00
2018-11-21T05:08:07.534Z,2.90
2018-11-21T05:10:38.158Z,2.90
2018-11-21T05:13:05.062Z,2.90
2018-11-21T05:15:34.098Z,3.00
2018-11-21T05:18:03.168Z,2.80
2018-11-21T05:20:32.197Z,2.90
2018-11-21T05:23:01.464Z,2.90
2018-11-21T05:25:30.338Z,2.80
2018-11-21T05:27:59.357Z,2.90
2018-11-21T05:30:28.896Z,2.90
2018-11-21T05:32:58.229Z,2.80
2018-11-21T05:35:27.864Z,2.70
2018-11-21T05:37:57.710Z,2.90
2018-11-21T05:40:26.526Z,3.10
2018-11-21T05:42:55.884Z,3.00
2018-11-21T05:45:25.040Z,2.90
2018-11-21T05:47:54.605Z,3.10
2018-11-21T05:50:23.878Z,2.80
2018-11-21T05:52:52.628Z,2.80
2018-11-21T05:55:21.813Z,3.00
2018-11-21T05:57:50.399Z,2.80
2018-11-21T06:00:19.295Z,3.10
2018-11-21T06:02:48.700Z,3.00
2018-11-21T06:05:17.651Z,3.10
2018-11-21T06:07:46.809Z,3.40
2018-11-21T06:10:16.056Z,3.10
2018-11-21T06:12:45.061Z,3.20
2018-11-21T06:15:17.420Z,3.40
2018-11-21T06:17:50.310Z,3.40
2018-11-21T06:20:19.326Z,3.60
2018-11-21T06:22:48.297Z,3.60
2018-11-21T06:25:17.107Z,3.40
2018-11-21T06:27:46.977Z,3.40
2018-11-21T06:30:16.082Z,3.50
2018-11-21T06:32:45.378Z,3.40
2018-11-21T06:35:16.107Z,3.50
2018-11-21T06:37:52.546Z,3.60
2018-11-21T06:40:22.140Z,3.60
2018-11-21T06:43:00.415Z,3.60
2018-11-21T06:45:29.917Z,3.40
2018-11-21T06:47:58.845Z,3.40
2018-11-21T06:50:27.660Z,3.50
2018-11-21T06:52:58.109Z,3.50
2018-11-21T06:55:27.111Z,3.50
2018-11-21T06:57:56.622Z,3.30
2018-11-21T07:00:25.548Z,3.30
2018-11-21T07:02:54.330Z,3.50
2018-11-21T07:05:23.946Z,3.30
2018-11-21T07:07:53.157Z,3.10
2018-11-21T07:10:22.127Z,3.30
2018-11-21T07:12:50.829Z,3.50
2018-11-21T07:15:19.413Z,3.30
2018-11-21T07:17:47.886Z,3.20
2018-11-21T07:20:17.348Z,3.10
2018-11-21T07:22:48.423Z,3.30
2018-11-21T07:25:21.444Z,3.50
2018-11-21T07:27:50.173Z,3.50
2018-11-21T07:30:21.195Z,3.40
2018-11-21T07:32:48.164Z,3.50
2018-11-21T07:35:18.276Z,3.30
2018-11-21T07:37:46.990Z,3.20
2018-11-21T07:40:16.310Z,3.30
2018-11-21T07:42:45.549Z,3.40
2018-11-21T07:45:15.223Z,3.40
2018-11-21T07:47:45.082Z,3.40
2018-11-21T07:50:21.348Z,3.50
2018-11-21T07:52:47.913Z,3.50
2018-11-21T07:55:17.423Z,3.40
2018-11-21T07:57:50.713Z,3.40
2018-11-21T08:00:56.142Z,3.40
2018-11-21T08:03:26.504Z,3.20
2018-11-21T08:05:58.027Z,3.40
2018-11-21T08:08:31.951Z,3.60
2018-11-21T08:11:18.246Z,3.50
2018-11-21T08:14:05.260Z,3.50
2018-11-21T08:16:53.588Z,3.70
2018-11-21T08:19:53.508Z,3.30
2018-11-21T08:22:41.769Z,3.40
2018-11-21T08:25:25.718Z,3.50
2018-11-21T08:28:12.094Z,3.30
2018-11-21T08:30:41.680Z,3.40
2018-11-21T08:33:10.575Z,3.40
2018-11-21T08:35:39.705Z,3.70
2018-11-21T08:38:08.664Z,3.70
2018-11-21T08:40:38.912Z,3.70
2018-11-21T08:43:08.076Z,3.80
2018-11-21T08:45:37.187Z,3.80
2018-11-21T08:48:06.401Z,3.60
2018-11-21T08:50:35.226Z,3.60
2018-11-21T08:53:04.998Z,3.70
2018-11-21T08:55:34.534Z,3.50
2018-11-21T08:58:03.351Z,3.70
2018-11-21T09:00:32.211Z,3.60
2018-11-21T09:03:01.053Z,3.60
2018-11-21T09:05:30.452Z,3.70
2018-11-21T09:07:59.492Z,3.70
2018-11-21T09:12:57.561Z,3.50
2018-11-21T09:15:26.405Z,3.70
2018-11-21T09:17:55.694Z,3.70
2018-11-21T09:20:24.149Z,3.60
2018-11-21T09:22:52.711Z,3.70
2018-11-21T09:25:21.719Z,4.00
2018-11-21T09:27:50.492Z,4.00
2018-11-21T09:30:20.201Z,4.00
2018-11-21T09:32:50.029Z,4.00
2018-11-21T09:35:19.195Z,3.90
2018-11-21T09:37:47.887Z,4.10
2018-11-21T09:40:18.117Z,3.90
2018-11-21T09:42:47.914Z,4.00
2018-11-21T09:45:17.887Z,4.10
2018-11-21T09:47:46.690Z,4.30
2018-11-21T09:50:17.603Z,4.40
2018-11-21T09:52:50.362Z,4.20
2018-11-21T09:55:16.265Z,4.30
2018-11-21T09:57:45.132Z,4.30
2018-11-21T10:00:51.340Z,4.40
2018-11-21T10:03:22.651Z,4.50
2018-11-21T10:05:55.989Z,4.50
2018-11-21T10:08:47.786Z,4.40
2018-11-21T10:11:17.303Z,4.40
2018-11-21T10:13:46.233Z,4.50
2018-11-21T10:16:16.507Z,4.60
2018-11-21T10:18:47.034Z,4.60
2018-11-21T10:21:17.299Z,4.60
2018-11-21T10:23:46.608Z,4.50
2018-11-21T10:26:15.473Z,4.50
2018-11-21T10:28:44.715Z,4.50
2018-11-21T10:31:13.536Z,4.50
2018-11-21T10:33:42.799Z,4.50
2018-11-21T10:36:12.088Z,4.60
2018-11-21T10:38:40.892Z,4.70
2018-11-21T10:41:09.572Z,4.60
2018-11-21T10:43:38.904Z,4.50
2018-11-21T10:46:07.997Z,4.70
2018-11-21T10:48:36.787Z,4.70
2018-11-21T10:51:05.510Z,4.70
2018-11-21T10:53:34.869Z,4.80
2018-11-21T10:56:03.687Z,4.60
2018-11-21T10:58:33.026Z,4.60
2018-11-21T11:01:24.042Z,4.70
2018-11-21T11:04:06.873Z,4.70
2018-11-21T11:06:51.031Z,4.80
2018-11-21T11:09:38.329Z,4.90
2018-11-21T11:12:36.302Z,4.80
2018-11-21T11:15:39.402Z,4.80
2018-11-21T11:18:38.735Z,4.90
2018-11-21T11:21:23.978Z,4.90
2018-11-21T11:24:09.417Z,5.00
2018-11-21T11:27:03.025Z,5.20
2018-11-21T11:30:09.761Z,5.10
2018-11-21T11:32:45.873Z,5.10
2018-11-21T11:35:32.721Z,5.30
2018-11-21T11:38:29.628Z,5.30
2018-11-21T11:41:15.832Z,5.20
2018-11-21T11:44:02.702Z,5.00
2018-11-21T11:47:05.284Z,5.10
2018-11-21T11:49:56.339Z,5.10
2018-11-21T11:52:44.274Z,5.10
2018-11-21T11:55:41.072Z,5.10
2018-11-21T11:58:35.173Z,5.20
2018-11-21T12:01:31.927Z,5.30
2018-11-21T12:04:32.026Z,5.20
2018-11-21T12:07:14.673Z,5.20
2018-11-21T12:10:04.769Z,5.30
2018-11-21T12:12:51.870Z,5.10
2018-11-21T12:15:38.687Z,5.30
2018-11-21T12:18:30.910Z,5.30
2018-11-21T12:21:19.994Z,5.30
2018-11-21T12:24:12.860Z,5.30
2018-11-21T12:27:09.594Z,5.10
2018-11-21T12:30:13.052Z,5.00
2018-11-21T12:32:59.645Z,5.10
2018-11-21T12:35:56.459Z,5.20
2018-11-21T12:38:54.258Z,5.40
2018-11-21T12:41:46.185Z,5.30
2018-11-21T12:44:32.791Z,5.20
2018-11-21T12:47:20.655Z,5.10
2018-11-21T12:50:07.332Z,5.20
2018-11-21T12:53:00.911Z,5.20
2018-11-21T12:56:03.967Z,5.10
2018-11-21T12:59:06.223Z,5.10
2018-11-21T13:01:58.190Z,5.10
2018-11-21T13:04:44.805Z,5.00
2018-11-21T13:07:35.260Z,5.10
2018-11-21T13:10:24.258Z,5.30
2018-11-21T13:13:21.797Z,5.40
2018-11-21T13:16:21.711Z,5.40
2018-11-21T13:19:27.281Z,5.40
2018-11-21T13:22:12.266Z,5.30
2018-11-21T13:24:58.665Z,5.20
2018-11-21T13:27:45.220Z,5.30
2018-11-21T13:30:42.749Z,5.10
2018-11-21T13:33:29.343Z,5.00
2018-11-21T13:36:32.504Z,5.10
2018-11-21T13:39:22.864Z,5.10
2018-11-21T13:42:13.853Z,5.10
2018-11-21T13:45:07.698Z,5.10
2018-11-21T13:47:51.180Z,5.10
2018-11-21T13:50:37.438Z,5.00
2018-11-21T13:53:25.450Z,5.00
2018-11-21T13:55:54.768Z,5.00
2018-11-21T13:58:24.487Z,5.00
2018-11-21T14:00:53.631Z,5.00
2018-11-21T14:03:22.315Z,4.90
2018-11-21T14:05:50.750Z,5.00
2018-11-21T14:08:19.637Z,4.80
2018-11-21T14:10:48.540Z,4.80
2018-11-21T14:13:17.673Z,4.80
2018-11-21T14:15:46.294Z,4.90
2018-11-21T14:18:14.905Z,5.00
2018-11-21T14:20:43.411Z,4.80
2018-11-21T14:23:12.596Z,4.80
2018-11-21T14:25:42.082Z,4.80
2018-11-21T14:28:10.579Z,4.80
2018-11-21T14:30:39.407Z,4.80
2018-11-21T14:33:09.255Z,4.90
2018-11-21T14:35:38.662Z,4.80
2018-11-21T14:38:07.749Z,4.80
2018-11-21T14:40:36.604Z,4.60
2018-11-21T14:43:05.517Z,4.50
2018-11-21T14:45:34.071Z,4.80
2018-11-21T14:48:03.066Z,4.70
2018-11-21T14:50:39.242Z,4.70
2018-11-21T14:53:04.596Z,4.60
2018-11-21T14:55:35.123Z,4.50
2018-11-21T14:58:02.370Z,4.60
2018-11-21T15:00:31.256Z,4.70
2018-11-21T15:03:00.461Z,4.80
2018-11-21T15:05:29.284Z,4.70
2018-11-21T15:07:58.256Z,4.70
2018-11-21T15:10:27.224Z,4.50
2018-11-21T15:12:56.170Z,4.40
2018-11-21T15:15:25.099Z,4.20
2018-11-21T15:17:54.651Z,4.30
2018-11-21T15:20:24.728Z,4.40
2018-11-21T15:22:54.006Z,4.40
2018-11-21T15:25:24.071Z,4.40
2018-11-21T15:27:53.011Z,4.30
2018-11-21T15:30:26.324Z,4.20
2018-11-21T15:32:55.460Z,4.10
2018-11-21T15:35:24.325Z,4.30
2018-11-21T15:37:53.537Z,4.20
2018-11-21T15:40:23.608Z,4.30
2018-11-21T15:42:53.279Z,4.20
2018-11-21T15:45:24.049Z,4.10
2018-11-21T15:47:54.352Z,4.20
2018-11-21T15:50:23.411Z,4.00
2018-11-21T15:52:53.054Z,4.20
2018-11-21T15:55:47.727Z,4.20
2018-11-21T15:58:35.331Z,3.90
2018-11-21T16:01:05.285Z,4.10
2018-11-21T16:03:34.402Z,4.10
2018-11-21T16:06:03.934Z,4.10
2018-11-21T16:08:32.711Z,4.00
2018-11-21T16:11:05.494Z,4.10
2018-11-21T16:13:38.753Z,4.10
2018-11-21T16:16:11.570Z,4.10
2018-11-21T16:18:43.562Z,4.10
2018-11-21T16:21:16.987Z,4.10
2018-11-21T16:23:50.711Z,3.90
2018-11-21T16:26:25.802Z,3.50
2018-11-21T16:29:00.144Z,3.60
2018-11-21T16:31:33.135Z,3.50
2018-11-21T16:34:06.483Z,3.40
2018-11-21T16:36:38.751Z,3.70
2018-11-21T16:39:14.571Z,3.50
2018-11-21T16:41:47.842Z,3.40
2018-11-21T16:44:17.562Z,3.50
2018-11-21T16:46:50.193Z,3.60
2018-11-21T16:49:21.927Z,3.70
2018-11-21T16:51:55.596Z,3.50
2018-11-21T16:54:28.013Z,3.40
2018-11-21T16:57:03.609Z,3.30
2018-11-21T16:59:35.445Z,3.40
2018-11-21T17:02:07.729Z,3.60
2018-11-21T17:04:40.223Z,3.50
2018-11-21T17:07:16.344Z,3.20
2018-11-21T17:09:48.498Z,3.10
2018-11-21T17:12:21.308Z,3.00
2018-11-21T17:14:54.083Z,3.10
2018-11-21T17:17:26.456Z,3.10
2018-11-21T17:19:59.067Z,3.40
2018-11-21T17:22:32.977Z,3.50
2018-11-21T17:25:07.246Z,3.50
2018-11-21T17:27:41.021Z,3.50
2018-11-21T17:30:15.164Z,3.50
2018-11-21T17:32:48.150Z,3.60
2018-11-21T17:35:21.964Z,3.60
2018-11-21T17:37:54.742Z,3.60
2018-11-21T17:40:39.770Z,3.50
2018-11-21T17:43:11.355Z,3.60
2018-11-21T17:45:44.075Z,3.50
2018-11-21T17:48:16.586Z,3.60
2018-11-21T17:50:49.153Z,3.60
2018-11-21T17:53:21.415Z,3.50
2018-11-21T17:55:56.240Z,3.40
2018-11-21T17:58:28.976Z,3.30
2018-11-21T18:01:01.866Z,3.40
2018-11-21T18:03:35.080Z,3.40
2018-11-21T18:06:10.161Z,3.00
2018-11-21T18:08:42.545Z,2.90
2018-11-21T18:11:15.920Z,2.90
2018-11-21T18:13:51.097Z,3.00
2018-11-21T18:16:20.424Z,2.70
2018-11-21T18:18:49.224Z,3.10
2018-11-21T18:21:19.844Z,3.30
2018-11-21T18:23:47.518Z,3.30
2018-11-21T18:26:16.738Z,3.40
2018-11-21T18:28:45.873Z,3.50
2018-11-21T18:31:15.274Z,3.70
2018-11-21T18:33:43.827Z,3.90
2018-11-21T18:36:12.798Z,3.90
2018-11-21T18:38:42.272Z,3.90
2018-11-21T18:41:13.406Z,3.90
2018-11-21T18:43:42.889Z,3.80
2018-11-21T18:46:11.925Z,3.80
2018-11-21T18:48:43.638Z,3.70
2018-11-21T18:51:12.741Z,3.60
2018-11-21T18:53:42.942Z,3.70
2018-11-21T18:56:25.341Z,3.80
2018-11-21T18:59:13.713Z,3.80
2018-11-21T19:01:46.695Z,3.70
2018-11-21T19:04:13.033Z,3.60
2018-11-21T19:06:46.525Z,3.70
2018-11-21T19:09:16.594Z,3.70
2018-11-21T19:11:45.729Z,3.60
2018-11-21T19:14:14.992Z,3.50
2018-11-21T19:16:44.090Z,3.30
2018-11-21T19:19:13.135Z,3.40
2018-11-21T19:21:43.073Z,3.50
2018-11-21T19:24:11.882Z,3.50
2018-11-21T19:26:40.794Z,3.40
2018-11-21T19:29:12.513Z,3.50
2018-11-21T19:31:42.488Z,3.60
2018-11-21T19:34:12.513Z,3.60
2018-11-21T19:36:44.435Z,3.60
2018-11-21T19:39:14.428Z,3.60
2018-11-21T19:41:46.065Z,3.60
2018-11-21T19:44:19.306Z,3.60
2018-11-21T19:46:48.685Z,3.60
2018-11-21T19:49:19.563Z,3.70
2018-11-21T19:51:49.252Z,3.80
2018-11-21T19:54:18.450Z,3.80
2018-11-21T19:56:49.389Z,3.80
2018-11-21T19:59:19.042Z,3.80
2018-11-21T20:01:49.116Z,3.70
2018-11-21T20:04:20.079Z,3.70
2018-11-21T20:06:49.497Z,3.70
2018-11-21T20:09:18.424Z,3.70
2018-11-21T20:11:47.452Z,3.70
2018-11-21T20:14:16.441Z,3.70
2018-11-21T20:16:45.417Z,3.60
2018-11-21T20:19:14.345Z,3.70
2018-11-21T20:21:43.134Z,3.60
2018-11-21T20:24:12.171Z,3.60
2018-11-21T20:26:42.193Z,3.50
2018-11-21T20:29:11.415Z,3.50
2018-11-21T20:31:40.387Z,3.50
2018-11-21T20:34:11.802Z,3.60
2018-11-21T20:36:40.709Z,3.40
2018-11-21T20:39:11.335Z,3.40
2018-11-21T20:41:40.978Z,3.50
2018-11-21T20:44:10.123Z,3.40
2018-11-21T20:46:40.028Z,3.40
2018-11-21T20:49:11.372Z,3.40
2018-11-21T20:51:38.798Z,3.60
2018-11-21T20:54:09.227Z,3.50
2018-11-21T20:56:40.431Z,3.50
2018-11-21T20:59:07.769Z,3.40
2018-11-21T21:01:38.921Z,3.10
2018-11-21T21:04:08.032Z,3.30
2018-11-21T21:06:41.216Z,3.20
2018-11-21T21:09:13.981Z,3.30
2018-11-21T21:11:47.890Z,3.20
2018-11-21T21:14:14.475Z,3.10
2018-11-21T21:16:44.516Z,2.80
2018-11-21T21:19:13.748Z,3.00
2018-11-21T21:21:42.461Z,3.00
2018-11-21T21:24:11.601Z,3.10
2018-11-21T21:26:40.531Z,3.10
2018-11-21T21:29:09.731Z,3.20
2018-11-21T21:31:39.237Z,3.00
2018-11-21T21:34:08.520Z,2.90
2018-11-21T21:36:37.610Z,2.90
2018-11-21T21:39:10.146Z,3.10
2018-11-21T21:41:40.334Z,2.90
2018-11-21T21:44:09.382Z,2.90
2018-11-21T21:46:38.855Z,3.00
2018-11-21T21:49:07.781Z,3.30
2018-11-21T21:51:37.435Z,3.00
2018-11-21T21:54:07.140Z,3.10
2018-11-21T21:56:36.076Z,3.20
2018-11-21T21:59:05.038Z,3.20
2018-11-21T22:01:33.971Z,3.30
2018-11-21T22:04:03.304Z,2.90
2018-11-21T22:06:32.849Z,3.00
2018-11-21T22:09:03.099Z,3.00
2018-11-21T22:11:31.880Z,3.10
2018-11-21T22:14:01.116Z,3.30
2018-11-21T22:16:30.023Z,3.30
2018-11-21T22:18:58.770Z,3.30
2018-11-21T22:21:30.524Z,3.30
2018-11-21T22:24:01.611Z,3.20
2018-11-21T22:26:30.205Z,3.30
2018-11-21T22:28:58.931Z,3.40
2018-11-21T22:31:27.876Z,3.30
2018-11-21T22:33:56.649Z,3.10
2018-11-21T22:36:25.787Z,3.20
2018-11-21T22:38:54.799Z,3.00
2018-11-21T22:41:23.797Z,3.10
2018-11-21T22:43:53.074Z,3.20
2018-11-21T22:46:22.931Z,3.10
2018-11-21T22:48:52.813Z,3.30
2018-11-21T22:51:24.693Z,3.10
2018-11-21T22:53:53.175Z,3.10
2018-11-21T22:56:22.261Z,3.00
2018-11-21T22:58:51.210Z,3.20
2018-11-21T23:01:27.897Z,3.10
2018-11-21T23:03:57.089Z,3.20
2018-11-21T23:06:26.084Z,3.30
2018-11-21T23:08:55.178Z,3.20
2018-11-21T23:11:24.842Z,3.00
2018-11-21T23:13:53.635Z,2.90
2018-11-21T23:16:22.505Z,3.10
2018-11-21T23:18:51.500Z,3.20
2018-11-21T23:21:20.352Z,3.20
2018-11-21T23:23:49.231Z,3.30
2018-11-21T23:26:18.392Z,3.20
2018-11-21T23:28:47.271Z,3.00
2018-11-21T23:31:16.312Z,3.00
2018-11-21T23:33:45.258Z,3.10
2018-11-21T23:36:14.491Z,3.00
2018-11-21T23:38:44.055Z,3.10
2018-11-21T23:41:12.969Z,3.00
2018-11-21T23:43:42.107Z,2.90
2018-11-21T23:46:11.782Z,3.10
2018-11-21T23:48:41.698Z,3.00
2018-11-21T23:51:10.620Z,3.00
2018-11-21T23:53:39.740Z,2.90
2018-11-21T23:56:08.708Z,3.10
2018-11-21T23:58:37.720Z,3.10
